Lewis, Wisconsin
Current Conditions -  °F | °C
As of 4:15 AM on Monday 26 Jan 2015 (Local Time) from KRZN Reporting Station
Light Snow Light Snow  
Wind Chill: 11°   Ceiling: 500
Heat Index: 21°   Visibility: 1.5mi
Dew Point: 18°   Wind: 9mph
Humidity: 86%   Direction: 170°S
Pressure: 29.78"   Gusts: NA
Location:  45.71°N, 92.4°W
Report Text: KRZN 261015Z AUTO 17008KT 1 1/2SM -SN BKN005 OVC011 M06/M08 A2978 RMK AO2 T10601080
Loading
Personal Weather Stations






























Interactive Weather Map New forecast layout! Learn more

10-Day Weather Forecast

Advertisements
Track Severe Weather on mobile